sensor_id;sensor_type;location;lat;lon;timestamp;P1;durP1;ratioP1;P2;durP2;ratioP2
21816;SDS011;13247;47.504;7.382;2023-03-14T00:00:05;0.73;;;0.40;;
21816;SDS011;13247;47.504;7.382;2023-03-14T00:02:53;0.30;;;0.30;;
21816;SDS011;13247;47.504;7.382;2023-03-14T00:05:37;0.45;;;0.20;;
21816;SDS011;13247;47.504;7.382;2023-03-14T00:08:22;0.10;;;0.10;;
21816;SDS011;13247;47.504;7.382;2023-03-14T00:11:09;0.28;;;0.20;;
21816;SDS011;13247;47.504;7.382;2023-03-14T00:13:56;0.20;;;0.20;;
21816;SDS011;13247;47.504;7.382;2023-03-14T00:16:40;0.20;;;0.20;;
21816;SDS011;13247;47.504;7.382;2023-03-14T00:19:25;0.20;;;0.20;;
21816;SDS011;13247;47.504;7.382;2023-03-14T00:22:10;0.10;;;0.10;;
21816;SDS011;13247;47.504;7.382;2023-03-14T00:24:54;0.20;;;0.20;;
21816;SDS011;13247;47.504;7.382;2023-03-14T00:27:38;0.30;;;0.30;;
21816;SDS011;13247;47.504;7.382;2023-03-14T00:30:23;0.20;;;0.20;;
21816;SDS011;13247;47.504;7.382;2023-03-14T00:33:08;0.15;;;0.10;;
21816;SDS011;13247;47.504;7.382;2023-03-14T00:36:03;0.20;;;0.20;;
21816;SDS011;13247;47.504;7.382;2023-03-14T00:38:50;0.65;;;0.25;;
21816;SDS011;13247;47.504;7.382;2023-03-14T00:41:35;0.30;;;0.30;;
21816;SDS011;13247;47.504;7.382;2023-03-14T00:44:19;0.30;;;0.30;;
21816;SDS011;13247;47.504;7.382;2023-03-14T00:47:04;0.63;;;0.50;;
21816;SDS011;13247;47.504;7.382;2023-03-14T00:49:49;1.23;;;0.40;;
21816;SDS011;13247;47.504;7.382;2023-03-14T00:52:33;0.65;;;0.30;;
21816;SDS011;13247;47.504;7.382;2023-03-14T00:55:18;0.85;;;0.28;;
21816;SDS011;13247;47.504;7.382;2023-03-14T00:58:02;0.30;;;0.30;;
21816;SDS011;13247;47.504;7.382;2023-03-14T01:00:47;0.45;;;0.30;;
21816;SDS011;13247;47.504;7.382;2023-03-14T01:03:31;0.57;;;0.30;;
21816;SDS011;13247;47.504;7.382;2023-03-14T01:06:17;0.20;;;0.20;;
21816;SDS011;13247;47.504;7.382;2023-03-14T01:09:06;0.55;;;0.30;;
21816;SDS011;13247;47.504;7.382;2023-03-14T01:11:51;1.30;;;0.60;;
21816;SDS011;13247;47.504;7.382;2023-03-14T01:14:35;0.20;;;0.20;;
21816;SDS011;13247;47.504;7.382;2023-03-14T01:17:20;0.43;;;0.13;;
21816;SDS011;13247;47.504;7.382;2023-03-14T01:20:07;0.20;;;0.20;;
21816;SDS011;13247;47.504;7.382;2023-03-14T01:22:55;0.10;;;0.10;;
21816;SDS011;13247;47.504;7.382;2023-03-14T01:25:40;0.17;;;0.17;;
21816;SDS011;13247;47.504;7.382;2023-03-14T01:28:25;0.60;;;0.30;;
21816;SDS011;13247;47.504;7.382;2023-03-14T01:31:10;0.90;;;0.30;;
21816;SDS011;13247;47.504;7.382;2023-03-14T01:33:56;0.25;;;0.15;;
21816;SDS011;13247;47.504;7.382;2023-03-14T01:36:40;1.77;;;0.30;;
21816;SDS011;13247;47.504;7.382;2023-03-14T01:39:25;0.47;;;0.10;;
21816;SDS011;13247;47.504;7.382;2023-03-14T01:42:10;1.75;;;0.20;;
21816;SDS011;13247;47.504;7.382;2023-03-14T01:44:58;0.10;;;0.10;;
21816;SDS011;13247;47.504;7.382;2023-03-14T01:47:44;0.22;;;0.22;;
21816;SDS011;13247;47.504;7.382;2023-03-14T01:50:29;0.38;;;0.20;;
21816;SDS011;13247;47.504;7.382;2023-03-14T01:53:13;0.10;;;0.10;;
21816;SDS011;13247;47.504;7.382;2023-03-14T01:55:58;0.30;;;0.30;;
21816;SDS011;13247;47.504;7.382;2023-03-14T01:58:45;1.48;;;0.30;;
21816;SDS011;13247;47.504;7.382;2023-03-14T02:01:34;0.95;;;0.20;;
21816;SDS011;13247;47.504;7.382;2023-03-14T02:04:20;0.28;;;0.20;;
21816;SDS011;13247;47.504;7.382;2023-03-14T02:07:12;2.47;;;0.20;;
21816;SDS011;13247;47.504;7.382;2023-03-14T02:10:02;2.15;;;0.40;;
21816;SDS011;13247;47.504;7.382;2023-03-14T02:12:49;0.70;;;0.35;;
21816;SDS011;13247;47.504;7.382;2023-03-14T02:15:37;0.30;;;0.30;;
21816;SDS011;13247;47.504;7.382;2023-03-14T02:18:22;0.93;;;0.25;;
21816;SDS011;13247;47.504;7.382;2023-03-14T02:27:10;6.68;;;0.60;;
21816;SDS011;13247;47.504;7.382;2023-03-14T02:29:58;1.00;;;0.30;;
21816;SDS011;13247;47.504;7.382;2023-03-14T02:32:51;0.50;;;0.40;;
21816;SDS011;13247;47.504;7.382;2023-03-14T02:38:41;1.83;;;0.85;;
21816;SDS011;13247;47.504;7.382;2023-03-14T02:41:52;0.40;;;0.30;;
21816;SDS011;13247;47.504;7.382;2023-03-14T02:44:46;1.15;;;0.52;;
21816;SDS011;13247;47.504;7.382;2023-03-14T02:47:37;1.23;;;0.82;;
21816;SDS011;13247;47.504;7.382;2023-03-14T02:50:27;0.25;;;0.22;;
21816;SDS011;13247;47.504;7.382;2023-03-14T02:53:16;0.30;;;0.30;;
21816;SDS011;13247;47.504;7.382;2023-03-14T02:56:04;1.20;;;0.40;;
21816;SDS011;13247;47.504;7.382;2023-03-14T02:58:49;1.30;;;0.52;;
21816;SDS011;13247;47.504;7.382;2023-03-14T03:01:34;2.78;;;0.70;;
21816;SDS011;13247;47.504;7.382;2023-03-14T03:04:18;0.82;;;0.40;;
21816;SDS011;13247;47.504;7.382;2023-03-14T03:07:03;0.55;;;0.32;;
21816;SDS011;13247;47.504;7.382;2023-03-14T03:09:47;1.75;;;0.50;;
21816;SDS011;13247;47.504;7.382;2023-03-14T03:12:32;1.60;;;0.30;;
21816;SDS011;13247;47.504;7.382;2023-03-14T03:15:17;0.20;;;0.20;;
21816;SDS011;13247;47.504;7.382;2023-03-14T03:18:01;3.35;;;0.45;;
21816;SDS011;13247;47.504;7.382;2023-03-14T03:20:46;0.40;;;0.40;;
21816;SDS011;13247;47.504;7.382;2023-03-14T03:23:31;0.63;;;0.30;;
21816;SDS011;13247;47.504;7.382;2023-03-14T03:26:16;1.58;;;0.20;;
21816;SDS011;13247;47.504;7.382;2023-03-14T03:29:01;5.60;;;0.63;;
21816;SDS011;13247;47.504;7.382;2023-03-14T03:31:46;3.70;;;0.50;;
21816;SDS011;13247;47.504;7.382;2023-03-14T03:34:32;3.60;;;0.63;;
21816;SDS011;13247;47.504;7.382;2023-03-14T03:37:16;0.70;;;0.30;;
21816;SDS011;13247;47.504;7.382;2023-03-14T03:40:02;1.25;;;0.28;;
21816;SDS011;13247;47.504;7.382;2023-03-14T03:42:49;1.02;;;0.50;;
21816;SDS011;13247;47.504;7.382;2023-03-14T03:45:34;0.57;;;0.40;;
21816;SDS011;13247;47.504;7.382;2023-03-14T03:48:19;1.75;;;0.68;;
21816;SDS011;13247;47.504;7.382;2023-03-14T03:51:03;4.10;;;0.60;;
21816;SDS011;13247;47.504;7.382;2023-03-14T03:53:48;0.30;;;0.30;;
21816;SDS011;13247;47.504;7.382;2023-03-14T03:56:33;1.27;;;0.52;;
21816;SDS011;13247;47.504;7.382;2023-03-14T03:59:17;0.63;;;0.30;;
21816;SDS011;13247;47.504;7.382;2023-03-14T04:02:02;2.78;;;0.40;;
21816;SDS011;13247;47.504;7.382;2023-03-14T04:04:47;1.60;;;0.50;;
21816;SDS011;13247;47.504;7.382;2023-03-14T04:07:32;0.32;;;0.20;;
21816;SDS011;13247;47.504;7.382;2023-03-14T04:10:17;2.58;;;0.40;;
21816;SDS011;13247;47.504;7.382;2023-03-14T04:13:02;1.67;;;0.50;;
21816;SDS011;13247;47.504;7.382;2023-03-14T04:15:46;1.13;;;0.30;;
21816;SDS011;13247;47.504;7.382;2023-03-14T04:18:31;0.55;;;0.30;;
21816;SDS011;13247;47.504;7.382;2023-03-14T04:21:15;1.00;;;0.40;;
21816;SDS011;13247;47.504;7.382;2023-03-14T04:24:00;0.28;;;0.28;;
21816;SDS011;13247;47.504;7.382;2023-03-14T04:26:45;0.30;;;0.28;;
21816;SDS011;13247;47.504;7.382;2023-03-14T04:29:29;0.20;;;0.20;;
21816;SDS011;13247;47.504;7.382;2023-03-14T04:32:14;0.50;;;0.35;;
21816;SDS011;13247;47.504;7.382;2023-03-14T04:34:58;0.68;;;0.22;;
21816;SDS011;13247;47.504;7.382;2023-03-14T04:37:43;1.10;;;0.30;;
21816;SDS011;13247;47.504;7.382;2023-03-14T04:40:28;2.88;;;0.30;;
21816;SDS011;13247;47.504;7.382;2023-03-14T04:43:12;0.25;;;0.25;;
21816;SDS011;13247;47.504;7.382;2023-03-14T04:45:57;0.20;;;0.20;;
21816;SDS011;13247;47.504;7.382;2023-03-14T04:48:42;0.50;;;0.30;;
21816;SDS011;13247;47.504;7.382;2023-03-14T04:51:26;0.20;;;0.20;;
21816;SDS011;13247;47.504;7.382;2023-03-14T04:54:12;0.25;;;0.20;;
21816;SDS011;13247;47.504;7.382;2023-03-14T04:56:56;0.35;;;0.15;;
21816;SDS011;13247;47.504;7.382;2023-03-14T04:59:41;0.70;;;0.20;;
21816;SDS011;13247;47.504;7.382;2023-03-14T05:02:26;0.68;;;0.25;;
21816;SDS011;13247;47.504;7.382;2023-03-14T05:05:10;2.00;;;0.45;;
21816;SDS011;13247;47.504;7.382;2023-03-14T05:07:55;0.17;;;0.17;;
21816;SDS011;13247;47.504;7.382;2023-03-14T05:10:39;0.80;;;0.32;;
21816;SDS011;13247;47.504;7.382;2023-03-14T05:13:24;0.55;;;0.20;;
21816;SDS011;13247;47.504;7.382;2023-03-14T05:16:10;1.17;;;0.25;;
21816;SDS011;13247;47.504;7.382;2023-03-14T05:18:55;0.20;;;0.10;;
21816;SDS011;13247;47.504;7.382;2023-03-14T05:21:39;3.50;;;0.30;;
21816;SDS011;13247;47.504;7.382;2023-03-14T05:24:24;1.50;;;0.20;;
21816;SDS011;13247;47.504;7.382;2023-03-14T05:27:09;0.52;;;0.20;;
21816;SDS011;13247;47.504;7.382;2023-03-14T05:29:53;0.20;;;0.20;;
21816;SDS011;13247;47.504;7.382;2023-03-14T05:32:38;0.65;;;0.20;;
21816;SDS011;13247;47.504;7.382;2023-03-14T05:35:22;0.30;;;0.20;;
21816;SDS011;13247;47.504;7.382;2023-03-14T05:38:07;0.25;;;0.20;;
21816;SDS011;13247;47.504;7.382;2023-03-14T05:40:52;0.20;;;0.20;;
21816;SDS011;13247;47.504;7.382;2023-03-14T05:43:36;1.75;;;0.20;;
21816;SDS011;13247;47.504;7.382;2023-03-14T05:46:21;0.30;;;0.30;;
21816;SDS011;13247;47.504;7.382;2023-03-14T05:49:06;0.57;;;0.20;;
21816;SDS011;13247;47.504;7.382;2023-03-14T05:51:51;0.20;;;0.20;;
21816;SDS011;13247;47.504;7.382;2023-03-14T05:54:35;11.25;;;0.40;;
21816;SDS011;13247;47.504;7.382;2023-03-14T05:57:20;0.10;;;0.10;;
21816;SDS011;13247;47.504;7.382;2023-03-14T06:00:05;0.10;;;0.10;;
21816;SDS011;13247;47.504;7.382;2023-03-14T06:02:50;0.43;;;0.40;;
21816;SDS011;13247;47.504;7.382;2023-03-14T06:05:35;0.40;;;0.20;;
21816;SDS011;13247;47.504;7.382;2023-03-14T06:08:19;1.25;;;0.10;;
21816;SDS011;13247;47.504;7.382;2023-03-14T06:11:04;0.30;;;0.15;;
21816;SDS011;13247;47.504;7.382;2023-03-14T06:13:49;0.25;;;0.25;;
21816;SDS011;13247;47.504;7.382;2023-03-14T06:16:35;0.50;;;0.40;;
21816;SDS011;13247;47.504;7.382;2023-03-14T06:19:19;1.20;;;0.20;;
21816;SDS011;13247;47.504;7.382;2023-03-14T06:22:04;0.20;;;0.20;;
21816;SDS011;13247;47.504;7.382;2023-03-14T06:24:48;0.10;;;0.10;;
21816;SDS011;13247;47.504;7.382;2023-03-14T06:27:33;2.95;;;0.52;;
21816;SDS011;13247;47.504;7.382;2023-03-14T06:30:18;0.30;;;0.30;;
21816;SDS011;13247;47.504;7.382;2023-03-14T06:33:03;0.40;;;0.40;;
21816;SDS011;13247;47.504;7.382;2023-03-14T06:35:47;1.45;;;0.70;;
21816;SDS011;13247;47.504;7.382;2023-03-14T06:38:32;0.55;;;0.55;;
21816;SDS011;13247;47.504;7.382;2023-03-14T06:41:18;0.98;;;0.40;;
21816;SDS011;13247;47.504;7.382;2023-03-14T06:44:02;0.30;;;0.30;;
21816;SDS011;13247;47.504;7.382;2023-03-14T06:46:47;1.80;;;0.65;;
21816;SDS011;13247;47.504;7.382;2023-03-14T06:49:32;0.30;;;0.30;;
21816;SDS011;13247;47.504;7.382;2023-03-14T06:52:17;0.40;;;0.17;;
21816;SDS011;13247;47.504;7.382;2023-03-14T06:55:01;10.20;;;3.60;;
21816;SDS011;13247;47.504;7.382;2023-03-14T06:57:47;1.67;;;1.25;;
21816;SDS011;13247;47.504;7.382;2023-03-14T07:00:31;0.88;;;0.68;;
21816;SDS011;13247;47.504;7.382;2023-03-14T07:03:16;0.35;;;0.30;;
21816;SDS011;13247;47.504;7.382;2023-03-14T07:06:00;0.28;;;0.20;;
21816;SDS011;13247;47.504;7.382;2023-03-14T07:08:45;0.30;;;0.30;;
21816;SDS011;13247;47.504;7.382;2023-03-14T07:11:30;0.93;;;0.30;;
21816;SDS011;13247;47.504;7.382;2023-03-14T07:14:14;0.38;;;0.30;;
21816;SDS011;13247;47.504;7.382;2023-03-14T07:16:59;1.92;;;0.70;;
21816;SDS011;13247;47.504;7.382;2023-03-14T07:19:44;1.27;;;0.40;;
21816;SDS011;13247;47.504;7.382;2023-03-14T07:22:29;0.40;;;0.40;;
21816;SDS011;13247;47.504;7.382;2023-03-14T07:25:14;0.50;;;0.43;;
21816;SDS011;13247;47.504;7.382;2023-03-14T07:27:59;0.10;;;0.10;;
21816;SDS011;13247;47.504;7.382;2023-03-14T07:30:45;1.80;;;1.30;;
21816;SDS011;13247;47.504;7.382;2023-03-14T07:33:30;9.50;;;5.80;;
21816;SDS011;13247;47.504;7.382;2023-03-14T07:36:16;0.65;;;0.55;;
21816;SDS011;13247;47.504;7.382;2023-03-14T07:39:01;0.15;;;0.15;;
21816;SDS011;13247;47.504;7.382;2023-03-14T07:41:47;0.10;;;0.10;;
21816;SDS011;13247;47.504;7.382;2023-03-14T07:44:32;0.10;;;0.10;;
21816;SDS011;13247;47.504;7.382;2023-03-14T07:47:17;0.10;;;0.10;;
21816;SDS011;13247;47.504;7.382;2023-03-14T07:50:02;0.10;;;0.10;;
21816;SDS011;13247;47.504;7.382;2023-03-14T07:52:48;0.20;;;0.20;;
21816;SDS011;13247;47.504;7.382;2023-03-14T07:55:33;0.10;;;0.10;;
21816;SDS011;13247;47.504;7.382;2023-03-14T07:58:19;0.20;;;0.20;;
21816;SDS011;13247;47.504;7.382;2023-03-14T08:01:05;0.50;;;0.50;;
21816;SDS011;13247;47.504;7.382;2023-03-14T08:03:50;0.20;;;0.20;;
21816;SDS011;13247;47.504;7.382;2023-03-14T08:06:35;0.45;;;0.40;;
21816;SDS011;13247;47.504;7.382;2023-03-14T08:09:20;0.85;;;0.55;;
21816;SDS011;13247;47.504;7.382;2023-03-14T08:12:05;0.55;;;0.43;;
21816;SDS011;13247;47.504;7.382;2023-03-14T08:14:50;0.28;;;0.28;;
21816;SDS011;13247;47.504;7.382;2023-03-14T08:17:34;0.57;;;0.40;;
21816;SDS011;13247;47.504;7.382;2023-03-14T08:20:20;0.20;;;0.20;;
21816;SDS011;13247;47.504;7.382;2023-03-14T08:23:06;0.10;;;0.10;;
21816;SDS011;13247;47.504;7.382;2023-03-14T08:25:51;0.10;;;0.10;;
21816;SDS011;13247;47.504;7.382;2023-03-14T08:28:35;0.20;;;0.20;;
21816;SDS011;13247;47.504;7.382;2023-03-14T08:31:20;0.10;;;0.10;;
21816;SDS011;13247;47.504;7.382;2023-03-14T08:34:04;0.10;;;0.10;;
21816;SDS011;13247;47.504;7.382;2023-03-14T08:36:50;0.10;;;0.10;;
21816;SDS011;13247;47.504;7.382;2023-03-14T08:39:35;0.10;;;0.10;;
21816;SDS011;13247;47.504;7.382;2023-03-14T08:42:19;0.10;;;0.10;;
21816;SDS011;13247;47.504;7.382;2023-03-14T08:45:04;4.35;;;2.13;;
21816;SDS011;13247;47.504;7.382;2023-03-14T08:47:50;0.40;;;0.40;;
21816;SDS011;13247;47.504;7.382;2023-03-14T08:50:34;0.30;;;0.30;;
21816;SDS011;13247;47.504;7.382;2023-03-14T08:53:19;0.10;;;0.10;;
21816;SDS011;13247;47.504;7.382;2023-03-14T08:56:06;0.15;;;0.15;;
21816;SDS011;13247;47.504;7.382;2023-03-14T08:58:53;0.10;;;0.10;;
21816;SDS011;13247;47.504;7.382;2023-03-14T09:01:38;0.10;;;0.10;;
21816;SDS011;13247;47.504;7.382;2023-03-14T09:04:22;0.00;;;0.00;;
21816;SDS011;13247;47.504;7.382;2023-03-14T09:07:07;0.20;;;0.20;;
21816;SDS011;13247;47.504;7.382;2023-03-14T09:09:52;0.40;;;0.40;;
21816;SDS011;13247;47.504;7.382;2023-03-14T09:12:36;0.20;;;0.20;;
21816;SDS011;13247;47.504;7.382;2023-03-14T09:15:21;6.32;;;0.65;;
21816;SDS011;13247;47.504;7.382;2023-03-14T09:18:06;0.55;;;0.32;;
21816;SDS011;13247;47.504;7.382;2023-03-14T09:20:50;0.20;;;0.20;;
21816;SDS011;13247;47.504;7.382;2023-03-14T09:23:35;0.15;;;0.15;;
21816;SDS011;13247;47.504;7.382;2023-03-14T09:26:19;0.13;;;0.13;;
21816;SDS011;13247;47.504;7.382;2023-03-14T09:29:04;0.10;;;0.10;;
21816;SDS011;13247;47.504;7.382;2023-03-14T09:31:48;0.10;;;0.10;;
21816;SDS011;13247;47.504;7.382;2023-03-14T09:34:33;0.57;;;0.30;;
21816;SDS011;13247;47.504;7.382;2023-03-14T09:37:18;0.60;;;0.60;;
21816;SDS011;13247;47.504;7.382;2023-03-14T09:40:04;0.20;;;0.20;;
21816;SDS011;13247;47.504;7.382;2023-03-14T09:42:54;0.80;;;0.80;;
21816;SDS011;13247;47.504;7.382;2023-03-14T09:45:39;0.13;;;0.13;;
21816;SDS011;13247;47.504;7.382;2023-03-14T09:48:27;0.10;;;0.10;;
21816;SDS011;13247;47.504;7.382;2023-03-14T09:51:17;0.15;;;0.15;;
21816;SDS011;13247;47.504;7.382;2023-03-14T09:54:05;0.20;;;0.20;;
21816;SDS011;13247;47.504;7.382;2023-03-14T09:56:58;0.38;;;0.20;;
21816;SDS011;13247;47.504;7.382;2023-03-14T09:59:44;0.22;;;0.20;;
21816;SDS011;13247;47.504;7.382;2023-03-14T10:02:33;0.20;;;0.15;;
21816;SDS011;13247;47.504;7.382;2023-03-14T10:05:20;1.60;;;0.20;;
21816;SDS011;13247;47.504;7.382;2023-03-14T10:08:06;0.10;;;0.10;;
21816;SDS011;13247;47.504;7.382;2023-03-14T10:10:54;0.17;;;0.17;;
21816;SDS011;13247;47.504;7.382;2023-03-14T10:13:47;1.40;;;0.20;;
21816;SDS011;13247;47.504;7.382;2023-03-14T10:16:36;0.10;;;0.10;;
21816;SDS011;13247;47.504;7.382;2023-03-14T10:19:25;0.52;;;0.32;;
21816;SDS011;13247;47.504;7.382;2023-03-14T10:22:10;0.32;;;0.32;;
21816;SDS011;13247;47.504;7.382;2023-03-14T10:25:00;3.08;;;0.40;;
21816;SDS011;13247;47.504;7.382;2023-03-14T10:27:47;0.20;;;0.20;;
21816;SDS011;13247;47.504;7.382;2023-03-14T10:30:39;0.10;;;0.10;;
21816;SDS011;13247;47.504;7.382;2023-03-14T10:33:30;0.45;;;0.40;;
21816;SDS011;13247;47.504;7.382;2023-03-14T10:36:21;0.30;;;0.20;;
21816;SDS011;13247;47.504;7.382;2023-03-14T10:39:22;0.10;;;0.10;;
21816;SDS011;13247;47.504;7.382;2023-03-14T10:42:14;1.45;;;0.45;;
21816;SDS011;13247;47.504;7.382;2023-03-14T10:45:04;0.30;;;0.20;;
21816;SDS011;13247;47.504;7.382;2023-03-14T10:48:13;0.20;;;0.20;;
21816;SDS011;13247;47.504;7.382;2023-03-14T10:51:06;0.45;;;0.30;;
21816;SDS011;13247;47.504;7.382;2023-03-14T10:54:19;1.15;;;0.30;;
21816;SDS011;13247;47.504;7.382;2023-03-14T10:57:05;0.30;;;0.22;;
21816;SDS011;13247;47.504;7.382;2023-03-14T10:59:51;0.40;;;0.30;;
21816;SDS011;13247;47.504;7.382;2023-03-14T11:05:57;0.63;;;0.52;;
21816;SDS011;13247;47.504;7.382;2023-03-14T11:08:57;0.35;;;0.35;;
21816;SDS011;13247;47.504;7.382;2023-03-14T11:11:54;0.30;;;0.30;;
21816;SDS011;13247;47.504;7.382;2023-03-14T11:14:50;0.90;;;0.40;;
21816;SDS011;13247;47.504;7.382;2023-03-14T11:27:02;1.55;;;0.63;;
21816;SDS011;13247;47.504;7.382;2023-03-14T11:33:05;0.50;;;0.50;;
21816;SDS011;13247;47.504;7.382;2023-03-14T11:36:08;1.75;;;0.70;;
21816;SDS011;13247;47.504;7.382;2023-03-14T11:38:56;3.95;;;0.75;;
21816;SDS011;13247;47.504;7.382;2023-03-14T11:41:46;2.83;;;0.47;;
21816;SDS011;13247;47.504;7.382;2023-03-14T11:44:36;0.55;;;0.55;;
21816;SDS011;13247;47.504;7.382;2023-03-14T11:47:26;2.45;;;1.08;;
21816;SDS011;13247;47.504;7.382;2023-03-14T11:50:22;1.52;;;0.93;;
21816;SDS011;13247;47.504;7.382;2023-03-14T11:53:21;2.33;;;0.77;;
21816;SDS011;13247;47.504;7.382;2023-03-14T12:02:50;2.47;;;0.98;;
21816;SDS011;13247;47.504;7.382;2023-03-14T12:08:49;3.08;;;1.00;;
21816;SDS011;13247;47.504;7.382;2023-03-14T12:14:35;2.78;;;0.90;;
21816;SDS011;13247;47.504;7.382;2023-03-14T12:17:33;6.70;;;1.40;;
21816;SDS011;13247;47.504;7.382;2023-03-14T12:20:19;2.55;;;1.10;;
21816;SDS011;13247;47.504;7.382;2023-03-14T12:23:06;1.48;;;0.75;;
21816;SDS011;13247;47.504;7.382;2023-03-14T12:31:45;2.35;;;0.90;;
21816;SDS011;13247;47.504;7.382;2023-03-14T12:34:32;4.97;;;0.90;;
21816;SDS011;13247;47.504;7.382;2023-03-14T12:37:35;1.30;;;0.82;;
21816;SDS011;13247;47.504;7.382;2023-03-14T12:40:31;4.50;;;1.83;;
21816;SDS011;13247;47.504;7.382;2023-03-14T12:43:24;2.05;;;0.90;;
21816;SDS011;13247;47.504;7.382;2023-03-14T12:51:46;3.95;;;1.80;;
21816;SDS011;13247;47.504;7.382;2023-03-14T13:00:39;1.60;;;0.95;;
21816;SDS011;13247;47.504;7.382;2023-03-14T13:03:26;1.45;;;0.85;;
21816;SDS011;13247;47.504;7.382;2023-03-14T13:06:46;1.25;;;0.70;;
21816;SDS011;13247;47.504;7.382;2023-03-14T13:12:18;7.22;;;1.40;;
21816;SDS011;13247;47.504;7.382;2023-03-14T13:15:29;7.70;;;0.60;;
21816;SDS011;13247;47.504;7.382;2023-03-14T13:18:19;1.63;;;0.75;;
21816;SDS011;13247;47.504;7.382;2023-03-14T13:21:16;2.03;;;1.00;;
21816;SDS011;13247;47.504;7.382;2023-03-14T13:24:07;2.65;;;0.80;;
21816;SDS011;13247;47.504;7.382;2023-03-14T13:27:09;1.63;;;1.10;;
21816;SDS011;13247;47.504;7.382;2023-03-14T13:30:05;0.40;;;0.40;;
21816;SDS011;13247;47.504;7.382;2023-03-14T13:32:56;2.13;;;0.60;;
21816;SDS011;13247;47.504;7.382;2023-03-14T13:38:45;1.05;;;0.93;;
21816;SDS011;13247;47.504;7.382;2023-03-14T13:41:41;4.03;;;0.50;;
21816;SDS011;13247;47.504;7.382;2023-03-14T13:44:30;1.65;;;0.50;;
21816;SDS011;13247;47.504;7.382;2023-03-14T13:47:18;3.00;;;0.73;;
21816;SDS011;13247;47.504;7.382;2023-03-14T13:50:05;7.03;;;1.10;;
21816;SDS011;13247;47.504;7.382;2023-03-14T13:52:56;0.95;;;0.40;;
21816;SDS011;13247;47.504;7.382;2023-03-14T13:55:41;2.47;;;1.40;;
21816;SDS011;13247;47.504;7.382;2023-03-14T13:58:30;3.25;;;1.17;;
21816;SDS011;13247;47.504;7.382;2023-03-14T14:01:16;4.97;;;1.00;;
21816;SDS011;13247;47.504;7.382;2023-03-14T14:04:07;2.13;;;1.08;;
21816;SDS011;13247;47.504;7.382;2023-03-14T14:06:58;5.10;;;1.50;;
21816;SDS011;13247;47.504;7.382;2023-03-14T14:09:48;2.20;;;1.23;;
21816;SDS011;13247;47.504;7.382;2023-03-14T14:12:54;5.13;;;1.60;;
21816;SDS011;13247;47.504;7.382;2023-03-14T14:15:50;4.22;;;1.13;;
21816;SDS011;13247;47.504;7.382;2023-03-14T14:18:37;3.05;;;1.48;;
21816;SDS011;13247;47.504;7.382;2023-03-14T14:21:23;6.47;;;1.98;;
21816;SDS011;13247;47.504;7.382;2023-03-14T14:24:12;5.60;;;2.03;;
21816;SDS011;13247;47.504;7.382;2023-03-14T14:26:59;3.53;;;1.10;;
21816;SDS011;13247;47.504;7.382;2023-03-14T14:29:56;1.60;;;1.00;;
21816;SDS011;13247;47.504;7.382;2023-03-14T14:32:43;0.63;;;0.57;;
21816;SDS011;13247;47.504;7.382;2023-03-14T14:35:33;1.70;;;0.80;;
21816;SDS011;13247;47.504;7.382;2023-03-14T14:38:19;5.68;;;0.90;;
21816;SDS011;13247;47.504;7.382;2023-03-14T14:41:04;5.22;;;0.70;;
21816;SDS011;13247;47.504;7.382;2023-03-14T14:43:51;4.00;;;0.90;;
21816;SDS011;13247;47.504;7.382;2023-03-14T14:46:36;2.55;;;0.63;;
21816;SDS011;13247;47.504;7.382;2023-03-14T14:49:22;3.45;;;0.52;;
21816;SDS011;13247;47.504;7.382;2023-03-14T14:52:15;1.40;;;0.83;;
21816;SDS011;13247;47.504;7.382;2023-03-14T14:55:01;1.55;;;0.90;;
21816;SDS011;13247;47.504;7.382;2023-03-14T14:57:53;3.60;;;0.93;;
21816;SDS011;13247;47.504;7.382;2023-03-14T15:00:39;0.82;;;0.60;;
21816;SDS011;13247;47.504;7.382;2023-03-14T15:03:33;1.98;;;0.90;;
21816;SDS011;13247;47.504;7.382;2023-03-14T15:06:19;1.95;;;0.63;;
21816;SDS011;13247;47.504;7.382;2023-03-14T15:09:05;2.22;;;0.47;;
21816;SDS011;13247;47.504;7.382;2023-03-14T15:11:52;1.13;;;0.50;;
21816;SDS011;13247;47.504;7.382;2023-03-14T15:14:37;1.08;;;0.50;;
21816;SDS011;13247;47.504;7.382;2023-03-14T15:17:21;3.17;;;0.90;;
21816;SDS011;13247;47.504;7.382;2023-03-14T15:20:10;1.23;;;0.63;;
21816;SDS011;13247;47.504;7.382;2023-03-14T15:22:57;0.82;;;0.82;;
21816;SDS011;13247;47.504;7.382;2023-03-14T15:25:41;1.08;;;0.40;;
21816;SDS011;13247;47.504;7.382;2023-03-14T15:28:28;2.25;;;1.13;;
21816;SDS011;13247;47.504;7.382;2023-03-14T15:31:14;5.70;;;3.42;;
21816;SDS011;13247;47.504;7.382;2023-03-14T15:34:01;3.28;;;0.90;;
21816;SDS011;13247;47.504;7.382;2023-03-14T15:36:45;12.55;;;2.83;;
21816;SDS011;13247;47.504;7.382;2023-03-14T15:39:30;10.07;;;0.95;;
21816;SDS011;13247;47.504;7.382;2023-03-14T15:42:14;5.95;;;1.23;;
21816;SDS011;13247;47.504;7.382;2023-03-14T15:44:59;0.95;;;0.80;;
21816;SDS011;13247;47.504;7.382;2023-03-14T15:47:43;8.02;;;3.20;;
21816;SDS011;13247;47.504;7.382;2023-03-14T15:50:28;34.00;;;8.40;;
21816;SDS011;13247;47.504;7.382;2023-03-14T15:53:13;30.13;;;8.70;;
21816;SDS011;13247;47.504;7.382;2023-03-14T15:55:58;6.88;;;3.50;;
21816;SDS011;13247;47.504;7.382;2023-03-14T15:58:43;3.30;;;1.42;;
21816;SDS011;13247;47.504;7.382;2023-03-14T16:01:30;3.78;;;1.20;;
21816;SDS011;13247;47.504;7.382;2023-03-14T16:04:15;2.78;;;0.95;;
21816;SDS011;13247;47.504;7.382;2023-03-14T16:07:00;3.80;;;2.50;;
21816;SDS011;13247;47.504;7.382;2023-03-14T16:09:44;1.23;;;0.77;;
21816;SDS011;13247;47.504;7.382;2023-03-14T16:12:29;2.85;;;0.95;;
21816;SDS011;13247;47.504;7.382;2023-03-14T16:15:14;2.38;;;0.90;;
21816;SDS011;13247;47.504;7.382;2023-03-14T16:17:59;1.73;;;0.70;;
21816;SDS011;13247;47.504;7.382;2023-03-14T16:20:44;1.00;;;0.45;;
21816;SDS011;13247;47.504;7.382;2023-03-14T16:23:36;0.53;;;0.53;;
21816;SDS011;13247;47.504;7.382;2023-03-14T16:26:21;2.25;;;0.60;;
21816;SDS011;13247;47.504;7.382;2023-03-14T16:29:06;2.78;;;0.60;;
21816;SDS011;13247;47.504;7.382;2023-03-14T16:31:50;1.08;;;0.35;;
21816;SDS011;13247;47.504;7.382;2023-03-14T16:34:38;1.63;;;0.70;;
21816;SDS011;13247;47.504;7.382;2023-03-14T16:37:23;0.93;;;0.50;;
21816;SDS011;13247;47.504;7.382;2023-03-14T16:40:10;1.73;;;0.60;;
21816;SDS011;13247;47.504;7.382;2023-03-14T16:42:54;1.45;;;0.60;;
21816;SDS011;13247;47.504;7.382;2023-03-14T16:45:39;1.38;;;0.50;;
21816;SDS011;13247;47.504;7.382;2023-03-14T16:48:24;1.10;;;0.50;;
21816;SDS011;13247;47.504;7.382;2023-03-14T16:51:10;0.63;;;0.40;;
21816;SDS011;13247;47.504;7.382;2023-03-14T16:53:55;1.52;;;0.47;;
21816;SDS011;13247;47.504;7.382;2023-03-14T16:56:39;0.40;;;0.40;;
21816;SDS011;13247;47.504;7.382;2023-03-14T16:59:24;0.82;;;0.40;;
21816;SDS011;13247;47.504;7.382;2023-03-14T17:02:11;1.98;;;0.43;;
21816;SDS011;13247;47.504;7.382;2023-03-14T17:04:55;1.15;;;0.70;;
21816;SDS011;13247;47.504;7.382;2023-03-14T17:07:40;3.85;;;2.38;;
21816;SDS011;13247;47.504;7.382;2023-03-14T17:10:24;2.60;;;1.92;;
21816;SDS011;13247;47.504;7.382;2023-03-14T17:13:09;5.75;;;4.93;;
21816;SDS011;13247;47.504;7.382;2023-03-14T17:15:55;2.30;;;1.90;;
21816;SDS011;13247;47.504;7.382;2023-03-14T17:18:42;4.03;;;3.20;;
21816;SDS011;13247;47.504;7.382;2023-03-14T17:21:26;2.10;;;1.42;;
21816;SDS011;13247;47.504;7.382;2023-03-14T17:24:10;3.83;;;1.70;;
21816;SDS011;13247;47.504;7.382;2023-03-14T17:26:55;9.80;;;7.75;;
21816;SDS011;13247;47.504;7.382;2023-03-14T17:29:40;16.63;;;10.55;;
21816;SDS011;13247;47.504;7.382;2023-03-14T17:32:24;28.33;;;16.17;;
21816;SDS011;13247;47.504;7.382;2023-03-14T17:35:09;9.20;;;8.00;;
21816;SDS011;13247;47.504;7.382;2023-03-14T17:37:54;3.60;;;2.65;;
21816;SDS011;13247;47.504;7.382;2023-03-14T17:40:38;9.90;;;7.18;;
21816;SDS011;13247;47.504;7.382;2023-03-14T17:43:23;15.95;;;11.52;;
21816;SDS011;13247;47.504;7.382;2023-03-14T17:46:08;21.95;;;13.38;;